Karin IV — YT2496 — position and weather

sailwx.info

Track history (hours):
 
Tides and Currents Weather Stations Pressure Air Temp Water Temp Dewpoint Dewpoint Depression Visibility Wind Speed Wind Dir Waves Ship Positions

Karin IV

Last reported at 2017-Oct-20 19:30 UTC. Time now 2017-Oct-20 19:46 UTC.
Position N 48°08' E 017°09'.

Length 105 m; draft 0.2 m.

Type: Tanker. MMSI: 279202496.

Date/timePositionNaut miles runAvg speedWind from/ knotsBaromVisibWave heightAir tempDewpointWater temp
2017-Oct-20 19:30N 48°08' E 017°09'0 0.0
2017-Oct-20 19:00N 48°08' E 017°09'0 0.0
2017-Oct-20 18:31N 48°08' E 017°09'0 0.0
2017-Oct-20 18:00N 48°08' E 017°09'0 0.0
2017-Oct-20 17:30N 48°08' E 017°09'0 0.0
2017-Oct-20 17:01N 48°08' E 017°09'0 0.0
2017-Oct-20 16:31N 48°08' E 017°09'0 0.0
2017-Oct-20 16:01N 48°08' E 017°09'1 1.9
2017-Oct-20 15:31N 48°07' E 017°09'2 3.1
2017-Oct-20 15:01N 48°05' E 017°09'0 0.0
2017-Oct-20 14:31N 48°05' E 017°09'0 0.0
2017-Oct-20 13:30N 48°05' E 017°09'0 0.0
2017-Oct-20 13:01N 48°05' E 017°09'0 0.0
2017-Oct-20 12:31N 48°05' E 017°09'0 0.0
2017-Oct-20 12:00N 48°05' E 017°09'0 0.0
2017-Oct-20 11:31N 48°05' E 017°09'0 0.0
2017-Oct-20 11:00N 48°05' E 017°09'0 0.0
2017-Oct-20 10:31N 48°05' E 017°09'0 0.0
2017-Oct-20 10:01N 48°05' E 017°09'0 0.0
2017-Oct-20 09:31N 48°05' E 017°09'0 0.0
2017-Oct-20 09:01N 48°05' E 017°09'1 1.5
2017-Oct-20 08:30N 48°05' E 017°09'3 6.6
2017-Oct-20 08:00N 48°03' E 017°13'3 6.0
2017-Oct-20 07:31N 48°01' E 017°16'3 6.6
2017-Oct-20 07:01N 47°60' E 017°21'4 7.8
2017-Oct-20 06:31N 47°57' E 017°26'4 7.9
2017-Oct-20 06:01N 47°55' E 017°30'2 4.7
2017-Oct-20 05:31N 47°53' E 017°32'0 0.3
2017-Oct-20 05:01N 47°53' E 017°33'0 0.3
2017-Oct-20 04:28N 47°53' E 017°33'1 2.9
2017-Oct-20 04:01N 47°52' E 017°34'0 0.6
2017-Oct-20 03:31N 47°51' E 017°34'0 0.0
2017-Oct-20 03:01N 47°51' E 017°34'0 0.0
2017-Oct-20 02:31N 47°51' E 017°34'0 0.0
2017-Oct-20 02:01N 47°51' E 017°34'0 0.0
2017-Oct-20 01:30N 47°51' E 017°34'0 0.0
2017-Oct-20 01:00N 47°51' E 017°34'0 0.0
2017-Oct-20 00:31N 47°51' E 017°34'0 0.0
2017-Oct-20 00:00N 47°51' E 017°34'0 0.0
2017-Oct-19 23:31N 47°51' E 017°34'0 0.0
2017-Oct-19 23:01N 47°51' E 017°34'0 0.0
2017-Oct-19 22:31N 47°51' E 017°34'0 0.0
2017-Oct-19 22:01N 47°51' E 017°34'0 0.0
2017-Oct-19 21:31N 47°51' E 017°34'0 0.0
2017-Oct-19 21:01N 47°51' E 017°34'0 0.0
2017-Oct-19 20:31N 47°51' E 017°34'0 0.0
2017-Oct-19 20:00N 47°51' E 017°34'0 0.0
2017-Oct-19 19:31N 47°51' E 017°34'0 0.0
2017-Oct-19 19:01N 47°51' E 017°34'2 3.2
2017-Oct-19 18:31N 47°50' E 017°36'3 6.7
2017-Oct-19 18:00N 47°48' E 017°39'3 6.1
2017-Oct-19 17:29N 47°45' E 017°42'3 5.4
2017-Oct-19 16:56N 47°44' E 017°47'3 5.3
2017-Oct-19 16:25N 47°45' E 017°51'51 4.7
2017-Oct-19 05:43N 47°36' E 019°05'2 6.9
2017-Oct-19 05:28N 47°34' E 019°04'3 6.6
2017-Oct-19 05:00N 47°31' E 019°03'3 6.0
2017-Oct-19 04:30N 47°28' E 019°04'2 3.1
2017-Oct-19 04:00N 47°27' E 019°03'0 0.0
2017-Oct-19 03:30N 47°27' E 019°03'0 0.0
2017-Oct-19 03:00N 47°27' E 019°03'0 0.0
2017-Oct-19 02:30N 47°27' E 019°03'0 0.0
2017-Oct-19 02:00N 47°27' E 019°03'0 0.0
2017-Oct-19 01:30N 47°27' E 019°03'0 0.0
2017-Oct-19 01:00N 47°27' E 019°03'0 0.0
2017-Oct-19 00:30N 47°27' E 019°03'0 0.0
2017-Oct-19 00:00N 47°27' E 019°03'0 0.0
2017-Oct-18 23:30N 47°27' E 019°03'0 0.0
2017-Oct-18 23:00N 47°27' E 019°03'0 0.0
2017-Oct-18 22:30N 47°27' E 019°03'0 0.0
2017-Oct-18 22:00N 47°27' E 019°03'0 0.0
2017-Oct-18 21:30N 47°27' E 019°03'0 0.0
2017-Oct-18 21:00N 47°27' E 019°03'0 0.0
2017-Oct-18 20:30N 47°27' E 019°03'0 0.7
2017-Oct-18 20:00N 47°26' E 019°03'0 0.0
2017-Oct-18 19:30N 47°26' E 019°03'0 0.0
2017-Oct-18 19:00N 47°26' E 019°03'0 0.0
2017-Oct-18 18:30N 47°26' E 019°03'0 0.0
2017-Oct-18 18:00N 47°26' E 019°03'0 0.0
2017-Oct-18 17:30N 47°26' E 019°03'0 0.0
2017-Oct-18 17:00N 47°26' E 019°03'0 0.0
2017-Oct-18 16:30N 47°26' E 019°03'0 0.0
2017-Oct-18 16:00N 47°26' E 019°03'0 0.0
2017-Oct-18 15:30N 47°26' E 019°03'0 0.0
2017-Oct-18 15:00N 47°26' E 019°03'0 0.0
2017-Oct-18 14:00N 47°26' E 019°03'0 0.0
2017-Oct-18 13:30N 47°26' E 019°03'0 0.0
2017-Oct-18 13:00N 47°26' E 019°03'0 0.0
2017-Oct-18 12:30N 47°26' E 019°03'0 0.0
2017-Oct-18 12:00N 47°26' E 019°03'0 0.0
2017-Oct-18 11:30N 47°26' E 019°03'0 0.0
2017-Oct-18 11:00N 47°26' E 019°03'0 0.0
2017-Oct-18 10:30N 47°26' E 019°03'0 0.0
2017-Oct-18 10:00N 47°26' E 019°03'0 0.0
2017-Oct-18 09:30N 47°26' E 019°03'0 0.0
2017-Oct-18 09:00N 47°26' E 019°03'0 0.0
2017-Oct-18 08:30N 47°26' E 019°03'0 0.0
2017-Oct-18 08:00N 47°26' E 019°03'0 0.1
2017-Oct-18 07:30N 47°26' E 019°03'3 5.1
2017-Oct-18 07:00N 47°29' E 019°04'4 8.6
2017-Oct-18 06:30N 47°33' E 019°04'60 3.1
2017-Oct-17 10:51N 47°49' E 017°37'3 9.2
2017-Oct-17 10:30N 47°51' E 017°34'2 4.8
2017-Oct-17 10:00N 47°53' E 017°32'3 5.3
2017-Oct-17 09:30N 47°55' E 017°30'4 8.9
2017-Oct-17 09:00N 47°58' E 017°25'4 8.1
2017-Oct-17 08:30N 48°00' E 017°20'3 6.5
2017-Oct-17 08:00N 48°01' E 017°15'4 8.6
2017-Oct-17 07:30N 48°04' E 017°10'4 7.9
2017-Oct-17 07:00N 48°08' E 017°09'5 9.9
2017-Oct-17 06:30N 48°09' E 017°01'4 7.9
2017-Oct-17 06:00N 48°09' E 016°56'16 5.1
2017-Oct-17 02:46N 48°10' E 016°31'0 0.0
2017-Oct-17 02:18N 48°10' E 016°31'0 0.0
2017-Oct-16 23:42N 48°10' E 016°31'0 0.0
2017-Oct-16 23:22N 48°10' E 016°31'0 0.1
2017-Oct-16 16:18N 48°10' E 016°31'0 0.0
2017-Oct-16 14:27N 48°10' E 016°31'10 1.5
2017-Oct-16 07:38N 48°08' E 016°45'4 4.0
2017-Oct-16 06:42N 48°08' E 016°51'2 4.5
2017-Oct-16 06:22N 48°08' E 016°53'2 4.3
2017-Oct-16 06:00N 48°09' E 016°55'2 3.9
2017-Oct-16 05:30N 48°10' E 016°57'2 3.7
2017-Oct-16 05:00N 48°10' E 016°60'2 4.2
2017-Oct-16 04:30N 48°08' E 017°03'2 4.3
2017-Oct-16 04:00N 48°08' E 017°06'2 4.4
2017-Oct-16 03:30N 48°07' E 017°09'2 4.2
2017-Oct-16 03:00N 48°05' E 017°09'0 0.0
2017-Oct-16 02:30N 48°05' E 017°09'0 0.0
2017-Oct-16 02:00N 48°05' E 017°09'0 0.0
2017-Oct-16 01:30N 48°05' E 017°09'0 0.0
2017-Oct-16 01:00N 48°05' E 017°09'0 0.0
2017-Oct-16 00:30N 48°05' E 017°09'0 0.0
2017-Oct-16 00:00N 48°05' E 017°09'0 0.0
2017-Oct-15 23:30N 48°05' E 017°09'0 0.0
2017-Oct-15 23:00N 48°05' E 017°09'0 0.0
2017-Oct-15 22:30N 48°05' E 017°09'0 0.0
2017-Oct-15 22:00N 48°05' E 017°09'0 0.0
2017-Oct-15 21:30N 48°05' E 017°09'0 0.0
2017-Oct-15 21:00N 48°05' E 017°09'0 0.0
2017-Oct-15 20:30N 48°05' E 017°09'0 0.0
2017-Oct-15 20:00N 48°05' E 017°09'0 0.0
2017-Oct-15 19:30N 48°05' E 017°09'0 0.0
2017-Oct-15 19:00N 48°05' E 017°09'0 0.0
2017-Oct-15 18:30N 48°05' E 017°09'0 0.0
2017-Oct-15 18:00N 48°05' E 017°09'0 0.0
2017-Oct-15 17:30N 48°05' E 017°09'0 0.0
2017-Oct-15 17:00N 48°05' E 017°09'0 0.0
2017-Oct-15 16:30N 48°05' E 017°09'0 0.0
2017-Oct-15 16:00N 48°05' E 017°09'2 3.8
2017-Oct-15 15:30N 48°04' E 017°10'3 6.9
2017-Oct-15 15:00N 48°02' E 017°15'7 7.3
2017-Oct-15 14:00N 47°58' E 017°24'4 7.6
2017-Oct-15 13:30N 47°56' E 017°28'4 7.7
2017-Oct-15 13:00N 47°53' E 017°32'0 0.4
2017-Oct-15 12:29N 47°53' E 017°33'4 7.9
2017-Oct-15 12:00N 47°50' E 017°36'3 6.2
2017-Oct-15 11:27N 47°47' E 017°40'3 5.8
2017-Oct-15 11:00N 47°45' E 017°42'57 2.6
2017-Oct-14 12:53N 47°36' E 019°05'3 6.7
2017-Oct-14 12:30N 47°34' E 019°04'3 6.4
2017-Oct-14 12:00N 47°31' E 019°03'3 5.8
2017-Oct-14 11:30N 47°28' E 019°04'3 5.2
2017-Oct-14 11:00N 47°26' E 019°03'3 5.1
2017-Oct-14 10:31N 47°23' E 019°01'3 5.8
2017-Oct-14 10:00N 47°22' E 018°57'82 3.2
2017-Oct-13 08:13N 46°00' E 018°41'0 0.0
2017-Oct-13 08:00N 46°00' E 018°41'0 0.0
2017-Oct-13 07:30N 46°00' E 018°41'0 0.0
2017-Oct-13 07:00N 46°00' E 018°41'0 0.0
2017-Oct-13 06:30N 46°00' E 018°41'5 3.1
2017-Oct-13 04:52N 45°57' E 018°46'3 6.3
2017-Oct-13 04:29N 45°55' E 018°49'3 0.3
2017-Oct-12 18:28N 45°52' E 018°51'1 0.9
2017-Oct-12 17:12N 45°51' E 018°52'1 7.0
2017-Oct-12 17:00N 45°49' E 018°51'3 6.0
2017-Oct-12 16:31N 45°47' E 018°53'3 6.9
2017-Oct-12 16:00N 45°43' E 018°54'3 6.7
2017-Oct-12 15:30N 45°41' E 018°57'3 5.4
2017-Oct-12 15:00N 45°38' E 018°56'3 5.9
2017-Oct-12 14:30N 45°35' E 018°54'3 5.2
2017-Oct-12 14:00N 45°33' E 018°56'3 5.9
2017-Oct-12 13:30N 45°32' E 018°60'2 4.2
2017-Oct-12 13:00N 45°32' E 019°03'3 6.0
2017-Oct-12 12:30N 45°30' E 019°06'3 6.3
2017-Oct-12 12:00N 45°29' E 019°02'2 4.4
2017-Oct-12 11:31N 45°28' E 018°59'3 6.0
2017-Oct-12 11:00N 45°25' E 019°02'3 5.5
2017-Oct-12 10:30N 45°24' E 018°59'3 6.3
2017-Oct-12 10:00N 45°21' E 019°01'4 6.6
2017-Oct-12 09:28N 45°20' E 019°06'3 6.1
2017-Oct-12 08:55N 45°17' E 019°08'8 6.7
2017-Oct-12 07:45N 45°14' E 019°18'2 7.0
2017-Oct-12 07:27N 45°14' E 019°21'3 6.9
2017-Oct-12 07:00N 45°14' E 019°26'6 5.5
2017-Oct-12 05:58N 45°13' E 019°34'4 6.1
2017-Oct-12 05:14N 45°13' E 019°40'2 6.9
2017-Oct-12 04:58N 45°14' E 019°43'7 5.8
2017-Oct-12 03:48N 45°16' E 019°52'  
Track history (hours):
 
Tides and Currents Weather Stations Pressure Air Temp Water Temp Dewpoint Dewpoint Depression Visibility Wind Speed Wind Dir Waves Ship Positions

Karin IV

Last reported at 2017-Oct-20 19:30 UTC. Time now 2017-Oct-20 19:46 UTC.
Position N 48°08' E 017°09'.

Length 105 m; draft 0.2 m.

Type: Tanker. MMSI: 279202496.

Date/timePositionNaut miles runAvg speedWind from/ knotsBaromVisibWave heightAir tempDewpointWater temp
2017-Oct-20 19:30N 48°08' E 017°09'0 0.0
2017-Oct-20 19:00N 48°08' E 017°09'0 0.0
2017-Oct-20 18:31N 48°08' E 017°09'0 0.0
2017-Oct-20 18:00N 48°08' E 017°09'0 0.0
2017-Oct-20 17:30N 48°08' E 017°09'0 0.0
2017-Oct-20 17:01N 48°08' E 017°09'0 0.0
2017-Oct-20 16:31N 48°08' E 017°09'0 0.0
2017-Oct-20 16:01N 48°08' E 017°09'1 1.9
2017-Oct-20 15:31N 48°07' E 017°09'2 3.1
2017-Oct-20 15:01N 48°05' E 017°09'0 0.0
2017-Oct-20 14:31N 48°05' E 017°09'0 0.0
2017-Oct-20 13:30N 48°05' E 017°09'0 0.0
2017-Oct-20 13:01N 48°05' E 017°09'0 0.0
2017-Oct-20 12:31N 48°05' E 017°09'0 0.0
2017-Oct-20 12:00N 48°05' E 017°09'0 0.0
2017-Oct-20 11:31N 48°05' E 017°09'0 0.0
2017-Oct-20 11:00N 48°05' E 017°09'0 0.0
2017-Oct-20 10:31N 48°05' E 017°09'0 0.0
2017-Oct-20 10:01N 48°05' E 017°09'0 0.0
2017-Oct-20 09:31N 48°05' E 017°09'0 0.0
2017-Oct-20 09:01N 48°05' E 017°09'1 1.5
2017-Oct-20 08:30N 48°05' E 017°09'3 6.6
2017-Oct-20 08:00N 48°03' E 017°13'3 6.0
2017-Oct-20 07:31N 48°01' E 017°16'3 6.6
2017-Oct-20 07:01N 47°60' E 017°21'4 7.8
2017-Oct-20 06:31N 47°57' E 017°26'4 7.9
2017-Oct-20 06:01N 47°55' E 017°30'2 4.7
2017-Oct-20 05:31N 47°53' E 017°32'0 0.3
2017-Oct-20 05:01N 47°53' E 017°33'0 0.3
2017-Oct-20 04:28N 47°53' E 017°33'1 2.9
2017-Oct-20 04:01N 47°52' E 017°34'0 0.6
2017-Oct-20 03:31N 47°51' E 017°34'0 0.0
2017-Oct-20 03:01N 47°51' E 017°34'0 0.0
2017-Oct-20 02:31N 47°51' E 017°34'0 0.0
2017-Oct-20 02:01N 47°51' E 017°34'0 0.0
2017-Oct-20 01:30N 47°51' E 017°34'0 0.0
2017-Oct-20 01:00N 47°51' E 017°34'0 0.0
2017-Oct-20 00:31N 47°51' E 017°34'0 0.0
2017-Oct-20 00:00N 47°51' E 017°34'0 0.0
2017-Oct-19 23:31N 47°51' E 017°34'0 0.0
2017-Oct-19 23:01N 47°51' E 017°34'0 0.0
2017-Oct-19 22:31N 47°51' E 017°34'0 0.0
2017-Oct-19 22:01N 47°51' E 017°34'0 0.0
2017-Oct-19 21:31N 47°51' E 017°34'0 0.0
2017-Oct-19 21:01N 47°51' E 017°34'0 0.0
2017-Oct-19 20:31N 47°51' E 017°34'0 0.0
2017-Oct-19 20:00N 47°51' E 017°34'0 0.0
2017-Oct-19 19:31N 47°51' E 017°34'0 0.0
2017-Oct-19 19:01N 47°51' E 017°34'2 3.2
2017-Oct-19 18:31N 47°50' E 017°36'3 6.7
2017-Oct-19 18:00N 47°48' E 017°39'3 6.1
2017-Oct-19 17:29N 47°45' E 017°42'3 5.4
2017-Oct-19 16:56N 47°44' E 017°47'3 5.3
2017-Oct-19 16:25N 47°45' E 017°51'51 4.7
2017-Oct-19 05:43N 47°36' E 019°05'2 6.9
2017-Oct-19 05:28N 47°34' E 019°04'3 6.6
2017-Oct-19 05:00N 47°31' E 019°03'3 6.0
2017-Oct-19 04:30N 47°28' E 019°04'2 3.1
2017-Oct-19 04:00N 47°27' E 019°03'0 0.0
2017-Oct-19 03:30N 47°27' E 019°03'0 0.0
2017-Oct-19 03:00N 47°27' E 019°03'0 0.0
2017-Oct-19 02:30N 47°27' E 019°03'0 0.0
2017-Oct-19 02:00N 47°27' E 019°03'0 0.0
2017-Oct-19 01:30N 47°27' E 019°03'0 0.0
2017-Oct-19 01:00N 47°27' E 019°03'0 0.0
2017-Oct-19 00:30N 47°27' E 019°03'0 0.0
2017-Oct-19 00:00N 47°27' E 019°03'0 0.0
2017-Oct-18 23:30N 47°27' E 019°03'0 0.0
2017-Oct-18 23:00N 47°27' E 019°03'0 0.0
2017-Oct-18 22:30N 47°27' E 019°03'0 0.0
2017-Oct-18 22:00N 47°27' E 019°03'0 0.0
2017-Oct-18 21:30N 47°27' E 019°03'0 0.0
2017-Oct-18 21:00N 47°27' E 019°03'0 0.0
2017-Oct-18 20:30N 47°27' E 019°03'0 0.7
2017-Oct-18 20:00N 47°26' E 019°03'0 0.0
2017-Oct-18 19:30N 47°26' E 019°03'0 0.0
2017-Oct-18 19:00N 47°26' E 019°03'0 0.0
2017-Oct-18 18:30N 47°26' E 019°03'0 0.0
2017-Oct-18 18:00N 47°26' E 019°03'0 0.0
2017-Oct-18 17:30N 47°26' E 019°03'0 0.0
2017-Oct-18 17:00N 47°26' E 019°03'0 0.0
2017-Oct-18 16:30N 47°26' E 019°03'0 0.0
2017-Oct-18 16:00N 47°26' E 019°03'0 0.0
2017-Oct-18 15:30N 47°26' E 019°03'0 0.0
2017-Oct-18 15:00N 47°26' E 019°03'0 0.0
2017-Oct-18 14:00N 47°26' E 019°03'0 0.0
2017-Oct-18 13:30N 47°26' E 019°03'0 0.0
2017-Oct-18 13:00N 47°26' E 019°03'0 0.0
2017-Oct-18 12:30N 47°26' E 019°03'0 0.0
2017-Oct-18 12:00N 47°26' E 019°03'0 0.0
2017-Oct-18 11:30N 47°26' E 019°03'0 0.0
2017-Oct-18 11:00N 47°26' E 019°03'0 0.0
2017-Oct-18 10:30N 47°26' E 019°03'0 0.0
2017-Oct-18 10:00N 47°26' E 019°03'0 0.0
2017-Oct-18 09:30N 47°26' E 019°03'0 0.0
2017-Oct-18 09:00N 47°26' E 019°03'0 0.0
2017-Oct-18 08:30N 47°26' E 019°03'0 0.0
2017-Oct-18 08:00N 47°26' E 019°03'0 0.1
2017-Oct-18 07:30N 47°26' E 019°03'3 5.1
2017-Oct-18 07:00N 47°29' E 019°04'4 8.6
2017-Oct-18 06:30N 47°33' E 019°04'60 3.1
2017-Oct-17 10:51N 47°49' E 017°37'3 9.2
2017-Oct-17 10:30N 47°51' E 017°34'2 4.8
2017-Oct-17 10:00N 47°53' E 017°32'3 5.3
2017-Oct-17 09:30N 47°55' E 017°30'4 8.9
2017-Oct-17 09:00N 47°58' E 017°25'4 8.1
2017-Oct-17 08:30N 48°00' E 017°20'3 6.5
2017-Oct-17 08:00N 48°01' E 017°15'4 8.6
2017-Oct-17 07:30N 48°04' E 017°10'4 7.9
2017-Oct-17 07:00N 48°08' E 017°09'5 9.9
2017-Oct-17 06:30N 48°09' E 017°01'4 7.9
2017-Oct-17 06:00N 48°09' E 016°56'16 5.1
2017-Oct-17 02:46N 48°10' E 016°31'0 0.0
2017-Oct-17 02:18N 48°10' E 016°31'0 0.0
2017-Oct-16 23:42N 48°10' E 016°31'0 0.0
2017-Oct-16 23:22N 48°10' E 016°31'0 0.1
2017-Oct-16 16:18N 48°10' E 016°31'0 0.0
2017-Oct-16 14:27N 48°10' E 016°31'10 1.5
2017-Oct-16 07:38N 48°08' E 016°45'4 4.0
2017-Oct-16 06:42N 48°08' E 016°51'2 4.5
2017-Oct-16 06:22N 48°08' E 016°53'2 4.3
2017-Oct-16 06:00N 48°09' E 016°55'2 3.9
2017-Oct-16 05:30N 48°10' E 016°57'2 3.7
2017-Oct-16 05:00N 48°10' E 016°60'2 4.2
2017-Oct-16 04:30N 48°08' E 017°03'2 4.3
2017-Oct-16 04:00N 48°08' E 017°06'2 4.4
2017-Oct-16 03:30N 48°07' E 017°09'2 4.2
2017-Oct-16 03:00N 48°05' E 017°09'0 0.0
2017-Oct-16 02:30N 48°05' E 017°09'0 0.0
2017-Oct-16 02:00N 48°05' E 017°09'0 0.0
2017-Oct-16 01:30N 48°05' E 017°09'0 0.0
2017-Oct-16 01:00N 48°05' E 017°09'0 0.0
2017-Oct-16 00:30N 48°05' E 017°09'0 0.0
2017-Oct-16 00:00N 48°05' E 017°09'0 0.0
2017-Oct-15 23:30N 48°05' E 017°09'0 0.0
2017-Oct-15 23:00N 48°05' E 017°09'0 0.0
2017-Oct-15 22:30N 48°05' E 017°09'0 0.0
2017-Oct-15 22:00N 48°05' E 017°09'0 0.0
2017-Oct-15 21:30N 48°05' E 017°09'0 0.0
2017-Oct-15 21:00N 48°05' E 017°09'0 0.0
2017-Oct-15 20:30N 48°05' E 017°09'0 0.0
2017-Oct-15 20:00N 48°05' E 017°09'0 0.0
2017-Oct-15 19:30N 48°05' E 017°09'0 0.0
2017-Oct-15 19:00N 48°05' E 017°09'0 0.0
2017-Oct-15 18:30N 48°05' E 017°09'0 0.0
2017-Oct-15 18:00N 48°05' E 017°09'0 0.0
2017-Oct-15 17:30N 48°05' E 017°09'0 0.0
2017-Oct-15 17:00N 48°05' E 017°09'0 0.0
2017-Oct-15 16:30N 48°05' E 017°09'0 0.0
2017-Oct-15 16:00N 48°05' E 017°09'2 3.8
2017-Oct-15 15:30N 48°04' E 017°10'3 6.9
2017-Oct-15 15:00N 48°02' E 017°15'7 7.3
2017-Oct-15 14:00N 47°58' E 017°24'4 7.6
2017-Oct-15 13:30N 47°56' E 017°28'4 7.7
2017-Oct-15 13:00N 47°53' E 017°32'0 0.4
2017-Oct-15 12:29N 47°53' E 017°33'4 7.9
2017-Oct-15 12:00N 47°50' E 017°36'3 6.2
2017-Oct-15 11:27N 47°47' E 017°40'3 5.8
2017-Oct-15 11:00N 47°45' E 017°42'57 2.6
2017-Oct-14 12:53N 47°36' E 019°05'3 6.7
2017-Oct-14 12:30N 47°34' E 019°04'3 6.4
2017-Oct-14 12:00N 47°31' E 019°03'3 5.8
2017-Oct-14 11:30N 47°28' E 019°04'3 5.2
2017-Oct-14 11:00N 47°26' E 019°03'3 5.1
2017-Oct-14 10:31N 47°23' E 019°01'3 5.8
2017-Oct-14 10:00N 47°22' E 018°57'82 3.2
2017-Oct-13 08:13N 46°00' E 018°41'0 0.0
2017-Oct-13 08:00N 46°00' E 018°41'0 0.0
2017-Oct-13 07:30N 46°00' E 018°41'0 0.0
2017-Oct-13 07:00N 46°00' E 018°41'0 0.0
2017-Oct-13 06:30N 46°00' E 018°41'5 3.1
2017-Oct-13 04:52N 45°57' E 018°46'3 6.3
2017-Oct-13 04:29N 45°55' E 018°49'3 0.3
2017-Oct-12 18:28N 45°52' E 018°51'1 0.9
2017-Oct-12 17:12N 45°51' E 018°52'1 7.0
2017-Oct-12 17:00N 45°49' E 018°51'3 6.0
2017-Oct-12 16:31N 45°47' E 018°53'3 6.9
2017-Oct-12 16:00N 45°43' E 018°54'3 6.7
2017-Oct-12 15:30N 45°41' E 018°57'3 5.4
2017-Oct-12 15:00N 45°38' E 018°56'3 5.9
2017-Oct-12 14:30N 45°35' E 018°54'3 5.2
2017-Oct-12 14:00N 45°33' E 018°56'3 5.9
2017-Oct-12 13:30N 45°32' E 018°60'2 4.2
2017-Oct-12 13:00N 45°32' E 019°03'3 6.0
2017-Oct-12 12:30N 45°30' E 019°06'3 6.3
2017-Oct-12 12:00N 45°29' E 019°02'2 4.4
2017-Oct-12 11:31N 45°28' E 018°59'3 6.0
2017-Oct-12 11:00N 45°25' E 019°02'3 5.5
2017-Oct-12 10:30N 45°24' E 018°59'3 6.3
2017-Oct-12 10:00N 45°21' E 019°01'4 6.6
2017-Oct-12 09:28N 45°20' E 019°06'3 6.1
2017-Oct-12 08:55N 45°17' E 019°08'8 6.7
2017-Oct-12 07:45N 45°14' E 019°18'2 7.0
2017-Oct-12 07:27N 45°14' E 019°21'3 6.9
2017-Oct-12 07:00N 45°14' E 019°26'6 5.5
2017-Oct-12 05:58N 45°13' E 019°34'4 6.1
2017-Oct-12 05:14N 45°13' E 019°40'2 6.9
2017-Oct-12 04:58N 45°14' E 019°43'7 5.8
2017-Oct-12 03:48N 45°16' E 019°52'  

Dump ship's entire track history